Terminal Aerodrome Forecast
Issued by NWS

Home | Current Version | Previous Version | Graphics & Text | Print | Product List | Glossary On
Versions: 1 2 3 4 5 6 7 8 9 10 11 12 13 14 15 16 17 18 19
595
FTUS43 KBIS 052332
TAFDIK
TAF
KDIK 052332Z 0600/0624 30028G37KT 1/2SM -SN BLSN BKN015
     FM060500 30030G43KT 3SM BLSN BKN015
     FM061500 30023G32KT P6SM BKN035
     FM062000 30018G28KT P6SM OVC050=

USA.gov is the U.S. government's official web portal to all federal, state and local government web resources and services.